createdAt,value
2018-05-31T00:02:14.861Z,21.30
2018-05-31T00:04:42.376Z,21.30
2018-05-31T00:07:10.003Z,21.30
2018-05-31T00:09:38.246Z,21.20
2018-05-31T00:12:05.832Z,21.20
2018-05-31T00:14:33.345Z,21.20
2018-05-31T00:17:00.953Z,21.20
2018-05-31T00:19:28.482Z,21.10
2018-05-31T00:21:56.032Z,21.00
2018-05-31T00:24:23.524Z,21.00
2018-05-31T00:26:51.843Z,20.90
2018-05-31T00:29:19.353Z,20.90
2018-05-31T00:31:47.029Z,20.90
2018-05-31T00:34:14.614Z,20.80
2018-05-31T00:36:42.092Z,20.80
2018-05-31T00:39:09.588Z,20.80
2018-05-31T00:41:37.869Z,20.70
2018-05-31T00:44:05.394Z,20.60
2018-05-31T00:46:32.886Z,20.60
2018-05-31T00:49:00.409Z,20.60
2018-05-31T00:51:27.884Z,20.50
2018-05-31T00:53:55.409Z,20.50
2018-05-31T00:56:22.885Z,20.40
2018-05-31T00:58:50.452Z,20.50
2018-05-31T01:01:17.953Z,20.40
2018-05-31T01:03:45.481Z,20.30
2018-05-31T01:06:13.386Z,20.30
2018-05-31T01:08:41.694Z,20.30
2018-05-31T01:11:09.297Z,20.20
2018-05-31T01:13:37.117Z,20.30
2018-05-31T01:16:04.660Z,20.20
2018-05-31T01:18:32.227Z,20.10
2018-05-31T01:20:59.933Z,20.10
2018-05-31T01:23:27.447Z,20.10
2018-05-31T01:25:54.960Z,20.10
2018-05-31T01:28:22.455Z,20.00
2018-05-31T01:30:49.974Z,20.00
2018-05-31T01:33:18.376Z,20.00
2018-05-31T01:35:45.892Z,19.90
2018-05-31T01:38:25.170Z,19.90
2018-05-31T01:40:52.669Z,19.90
2018-05-31T01:43:20.170Z,19.80
2018-05-31T01:45:49.354Z,19.80
2018-05-31T01:48:16.835Z,19.80
2018-05-31T01:50:44.344Z,19.80
2018-05-31T01:53:11.888Z,19.80
2018-05-31T01:55:39.472Z,19.70
2018-05-31T01:58:06.964Z,19.70
2018-05-31T02:00:34.505Z,19.60
2018-05-31T02:03:02.016Z,19.50
2018-05-31T02:05:29.538Z,19.50
2018-05-31T02:07:57.038Z,19.40
2018-05-31T02:10:24.551Z,19.40
2018-05-31T02:12:52.900Z,19.30
2018-05-31T02:15:20.410Z,19.30
2018-05-31T02:17:48.821Z,19.30
2018-05-31T02:20:16.286Z,19.20
2018-05-31T02:22:43.776Z,19.20
2018-05-31T02:25:12.056Z,19.20
2018-05-31T02:27:39.564Z,19.20
2018-05-31T02:30:07.045Z,19.20
2018-05-31T02:32:34.559Z,19.10
2018-05-31T02:35:02.104Z,19.00
2018-05-31T02:37:29.608Z,19.00
2018-05-31T02:39:57.105Z,19.00
2018-05-31T02:42:24.632Z,18.90
2018-05-31T02:44:52.174Z,18.90
2018-05-31T02:47:19.664Z,18.90
2018-05-31T02:49:47.917Z,18.90
2018-05-31T02:52:15.460Z,18.90
2018-05-31T02:54:42.937Z,18.80
2018-05-31T02:57:10.420Z,18.80
2018-05-31T02:59:37.929Z,18.70
2018-05-31T03:02:05.402Z,18.70
2018-05-31T03:04:33.009Z,18.70
2018-05-31T03:07:01.246Z,18.80
2018-05-31T03:09:28.753Z,18.70
2018-05-31T03:11:56.341Z,18.70
2018-05-31T03:14:23.853Z,18.60
2018-05-31T03:16:51.331Z,18.50
2018-05-31T03:19:18.843Z,18.50
2018-05-31T03:21:46.384Z,18.50
2018-05-31T03:24:13.898Z,18.50
2018-05-31T03:26:41.431Z,18.50
2018-05-31T03:29:09.686Z,18.50
2018-05-31T03:31:39.162Z,18.50
2018-05-31T03:34:08.109Z,18.50
2018-05-31T03:36:35.617Z,18.40
2018-05-31T03:39:03.125Z,18.50
2018-05-31T03:41:30.645Z,18.40
2018-05-31T03:43:58.144Z,18.50
2018-05-31T03:46:25.638Z,18.50
2018-05-31T03:48:53.159Z,18.50
2018-05-31T03:51:21.362Z,18.50
2018-05-31T03:53:48.859Z,18.40
2018-05-31T03:56:16.344Z,18.40
2018-05-31T03:58:44.654Z,18.40
2018-05-31T04:01:12.176Z,18.40
2018-05-31T04:03:39.738Z,18.50
2018-05-31T04:06:08.022Z,18.40
2018-05-31T04:08:35.565Z,18.40
2018-05-31T04:11:03.069Z,18.40
2018-05-31T04:13:30.972Z,18.40
2018-05-31T04:15:58.465Z,18.40
2018-05-31T04:18:26.000Z,18.50
2018-05-31T04:20:54.418Z,18.40
2018-05-31T04:23:22.451Z,18.40
2018-05-31T04:25:51.141Z,18.40
2018-05-31T04:28:19.501Z,18.50
2018-05-31T04:30:47.861Z,18.50
2018-05-31T04:33:15.445Z,18.50
2018-05-31T04:35:43.039Z,18.50
2018-05-31T04:38:10.546Z,18.50
2018-05-31T04:40:38.035Z,18.60
2018-05-31T04:43:05.579Z,18.60
2018-05-31T04:45:34.453Z,18.70
2018-05-31T04:48:02.108Z,18.70
2018-05-31T04:50:30.699Z,18.80
2018-05-31T04:52:58.235Z,18.80
2018-05-31T04:55:25.740Z,18.80
2018-05-31T04:57:53.231Z,18.80
2018-05-31T05:00:21.770Z,18.90
2018-05-31T05:02:49.747Z,18.90
2018-05-31T05:05:17.594Z,19.00
2018-05-31T05:07:48.061Z,19.00
2018-05-31T05:10:15.703Z,19.00
2018-05-31T05:12:43.933Z,19.00
2018-05-31T05:15:13.342Z,19.10
2018-05-31T05:17:41.141Z,19.20
2018-05-31T05:20:08.918Z,19.30
2018-05-31T05:22:37.455Z,19.30
2018-05-31T05:25:07.428Z,19.30
2018-05-31T05:27:35.285Z,19.50
2018-05-31T05:30:02.836Z,19.70
2018-05-31T05:32:30.404Z,19.70
2018-05-31T05:34:57.868Z,19.70
2018-05-31T05:37:26.278Z,19.90
2018-05-31T05:39:54.581Z,20.00
2018-05-31T05:42:22.073Z,20.00
2018-05-31T05:44:50.316Z,20.20
2018-05-31T05:47:17.821Z,20.10
2018-05-31T05:49:45.315Z,20.30
2018-05-31T05:52:12.882Z,20.30
2018-05-31T05:54:40.386Z,20.40
2018-05-31T05:57:07.946Z,20.50
2018-05-31T05:59:35.447Z,20.60
2018-05-31T06:02:02.963Z,20.70
2018-05-31T06:04:31.302Z,20.80
2018-05-31T06:06:58.789Z,20.80
2018-05-31T06:09:26.379Z,20.90
2018-05-31T06:11:53.885Z,21.00
2018-05-31T06:14:21.383Z,21.00
2018-05-31T06:16:48.854Z,21.10
2018-05-31T06:19:16.360Z,21.20
2018-05-31T06:21:43.881Z,21.20
2018-05-31T06:24:11.381Z,21.20
2018-05-31T06:26:38.895Z,21.30
2018-05-31T06:29:06.432Z,21.40
2018-05-31T06:31:34.036Z,21.50
2018-05-31T06:34:01.531Z,21.60
2018-05-31T06:36:29.260Z,21.60
2018-05-31T06:39:00.165Z,21.70
2018-05-31T06:41:28.509Z,21.70
2018-05-31T06:43:58.789Z,21.80
2018-05-31T06:46:26.376Z,22.00
2018-05-31T06:48:53.958Z,22.10
2018-05-31T06:51:21.434Z,22.20
2018-05-31T06:53:49.873Z,22.20
2018-05-31T06:56:17.601Z,22.30
2018-05-31T06:58:45.088Z,22.40
2018-05-31T07:01:12.580Z,22.50
2018-05-31T07:03:40.049Z,22.60
2018-05-31T07:06:07.576Z,22.60
2018-05-31T07:08:35.050Z,22.70
2018-05-31T07:11:02.551Z,22.80
2018-05-31T07:13:30.042Z,22.90
2018-05-31T07:15:57.530Z,23.00
2018-05-31T07:18:25.784Z,23.10
2018-05-31T07:20:54.054Z,23.20
2018-05-31T07:23:21.524Z,23.20
2018-05-31T07:25:49.807Z,23.40
2018-05-31T07:28:17.316Z,23.40
2018-05-31T07:30:44.805Z,23.50
2018-05-31T07:33:12.304Z,23.60
2018-05-31T07:35:39.834Z,23.70
2018-05-31T07:38:07.611Z,23.70
2018-05-31T07:40:35.107Z,23.80
2018-05-31T07:43:02.626Z,23.90
2018-05-31T07:45:30.213Z,24.00
2018-05-31T07:47:57.788Z,24.10
2018-05-31T07:50:25.263Z,24.10
2018-05-31T07:52:52.750Z,24.20
2018-05-31T07:55:21.074Z,24.40
2018-05-31T07:57:48.553Z,24.40
2018-05-31T08:00:16.033Z,24.50
2018-05-31T08:02:43.546Z,24.60
2018-05-31T08:05:11.029Z,24.60
2018-05-31T08:07:38.508Z,24.70
2018-05-31T08:10:06.863Z,24.70
2018-05-31T08:12:34.357Z,24.70
2018-05-31T08:15:01.901Z,24.90
2018-05-31T08:17:29.363Z,25.00
2018-05-31T08:19:56.830Z,25.10
2018-05-31T08:22:24.342Z,25.10
2018-05-31T08:24:51.863Z,25.20
2018-05-31T08:27:19.340Z,25.30
2018-05-31T08:29:46.837Z,25.40
2018-05-31T08:32:14.383Z,25.50
2018-05-31T08:34:41.871Z,25.50
2018-05-31T08:37:10.158Z,25.60
2018-05-31T08:39:37.678Z,25.60
2018-05-31T08:42:05.170Z,25.60
2018-05-31T08:44:33.420Z,25.80
2018-05-31T08:47:00.943Z,25.80
2018-05-31T08:49:28.418Z,25.90
2018-05-31T08:51:55.912Z,25.90
2018-05-31T08:54:23.383Z,26.00
2018-05-31T08:56:51.669Z,26.10
2018-05-31T08:59:19.145Z,26.10
2018-05-31T09:01:46.645Z,26.10
2018-05-31T09:04:14.141Z,26.20
2018-05-31T09:06:41.677Z,26.30
2018-05-31T09:09:09.150Z,26.40
2018-05-31T09:11:36.618Z,26.50
2018-05-31T09:14:04.087Z,26.50
2018-05-31T09:16:32.476Z,26.60
2018-05-31T09:18:59.938Z,26.60
2018-05-31T09:21:27.446Z,26.70
2018-05-31T09:23:54.958Z,26.80
2018-05-31T09:26:22.477Z,26.90
2018-05-31T09:28:49.989Z,26.90
2018-05-31T09:31:17.483Z,27.00
2018-05-31T09:33:44.950Z,27.10
2018-05-31T09:36:12.418Z,27.10
2018-05-31T09:38:39.981Z,27.20
2018-05-31T09:41:07.539Z,27.20
2018-05-31T09:43:34.977Z,27.20
2018-05-31T09:46:03.208Z,27.30
2018-05-31T09:48:30.932Z,27.30
2018-05-31T09:50:58.505Z,27.40
2018-05-31T09:53:26.075Z,27.40
2018-05-31T09:55:53.588Z,27.40
2018-05-31T09:58:21.043Z,27.50
2018-05-31T10:00:49.300Z,27.60
2018-05-31T10:03:16.790Z,27.60
2018-05-31T10:05:45.042Z,27.70
2018-05-31T10:08:13.286Z,27.80
2018-05-31T10:10:40.887Z,27.80
2018-05-31T10:13:09.145Z,27.90
2018-05-31T10:15:36.640Z,27.80
2018-05-31T10:18:04.236Z,27.90
2018-05-31T10:20:31.775Z,28.00
2018-05-31T10:22:59.397Z,28.10
2018-05-31T10:25:26.930Z,28.20
2018-05-31T10:27:55.029Z,28.20
2018-05-31T10:30:22.484Z,28.20
2018-05-31T10:32:49.980Z,28.10
2018-05-31T10:35:17.550Z,28.20
2018-05-31T10:37:45.139Z,28.20
2018-05-31T10:40:12.618Z,28.20
2018-05-31T10:42:40.173Z,28.30
2018-05-31T10:45:09.477Z,28.40
2018-05-31T10:47:37.746Z,28.50
2018-05-31T10:50:05.243Z,28.40
2018-05-31T10:52:32.800Z,28.50
2018-05-31T10:55:00.341Z,28.50
2018-05-31T10:57:27.871Z,28.60
2018-05-31T10:59:55.344Z,28.60
2018-05-31T11:02:23.613Z,28.70
2018-05-31T11:04:51.976Z,28.70
2018-05-31T11:07:19.441Z,28.80
2018-05-31T11:09:47.034Z,28.70
2018-05-31T11:12:14.548Z,28.70
2018-05-31T11:14:42.120Z,28.80
2018-05-31T11:17:09.644Z,28.90
2018-05-31T11:19:37.219Z,28.90
2018-05-31T11:22:04.863Z,29.00
2018-05-31T11:24:32.380Z,29.00
2018-05-31T11:26:59.921Z,29.10
2018-05-31T11:29:27.504Z,29.20
2018-05-31T11:31:54.981Z,29.30
2018-05-31T11:34:22.465Z,29.30
2018-05-31T11:36:49.961Z,29.30
2018-05-31T11:39:18.206Z,29.50
2018-05-31T11:41:45.738Z,29.50
2018-05-31T11:44:13.224Z,29.50
2018-05-31T11:46:40.744Z,29.50
2018-05-31T11:49:08.303Z,29.60
2018-05-31T11:51:35.816Z,29.60
2018-05-31T11:54:03.347Z,29.70
2018-05-31T11:56:30.940Z,29.70
2018-05-31T11:58:58.561Z,29.80
2018-05-31T12:01:26.086Z,29.90
2018-05-31T12:03:53.595Z,30.00
2018-05-31T12:06:21.146Z,30.00
2018-05-31T12:08:48.645Z,30.10
2018-05-31T12:11:16.132Z,30.20
2018-05-31T12:13:43.686Z,30.10
2018-05-31T12:16:11.314Z,30.00
2018-05-31T12:18:38.915Z,29.90
2018-05-31T12:21:06.747Z,29.90
2018-05-31T12:23:34.298Z,30.00
2018-05-31T12:26:01.861Z,30.00
2018-05-31T12:28:29.405Z,30.10
2018-05-31T12:30:56.983Z,30.10
2018-05-31T12:33:24.517Z,30.00
2018-05-31T12:35:52.108Z,30.10
2018-05-31T12:38:19.633Z,30.10
2018-05-31T12:40:47.327Z,30.20
2018-05-31T12:43:14.927Z,30.30
2018-05-31T12:45:42.560Z,30.40
2018-05-31T12:48:10.107Z,30.50
2018-05-31T12:50:37.691Z,30.60
2018-05-31T12:53:05.204Z,30.60
2018-05-31T12:55:32.895Z,30.60
2018-05-31T12:58:01.555Z,30.50
2018-05-31T13:00:29.189Z,30.60
2018-05-31T13:02:56.717Z,30.50
2018-05-31T13:05:24.198Z,30.50
2018-05-31T13:07:51.683Z,30.40
2018-05-31T13:10:19.280Z,30.30
2018-05-31T13:12:46.791Z,30.30
2018-05-31T13:15:14.318Z,30.30
2018-05-31T13:17:43.013Z,30.20
2018-05-31T13:20:10.752Z,30.00
2018-05-31T13:22:38.394Z,29.80
2018-05-31T13:25:06.030Z,29.50
2018-05-31T13:27:33.541Z,29.40
2018-05-31T13:30:01.045Z,29.20
2018-05-31T13:32:28.660Z,29.20
2018-05-31T13:34:56.166Z,29.10
2018-05-31T13:37:23.669Z,29.10
2018-05-31T13:39:51.304Z,29.00
2018-05-31T13:42:20.595Z,28.70
2018-05-31T13:44:48.240Z,28.70
2018-05-31T13:47:15.726Z,28.60
2018-05-31T13:49:45.211Z,28.50
2018-05-31T13:52:12.768Z,28.40
2018-05-31T13:54:40.342Z,28.50
2018-05-31T13:57:08.072Z,28.60
2018-05-31T13:59:35.672Z,28.80
2018-05-31T14:02:04.029Z,29.00
2018-05-31T14:04:31.607Z,28.90
2018-05-31T14:06:59.154Z,29.00
2018-05-31T14:09:27.514Z,29.10
2018-05-31T14:11:55.039Z,29.10
2018-05-31T14:14:22.666Z,29.10
2018-05-31T14:16:50.926Z,29.10
2018-05-31T14:19:18.604Z,29.10
2018-05-31T14:21:46.096Z,29.20
2018-05-31T14:24:13.642Z,29.30
2018-05-31T14:26:41.144Z,29.40
2018-05-31T14:29:09.470Z,29.40
2018-05-31T14:31:37.119Z,29.40
2018-05-31T14:34:05.480Z,29.40
2018-05-31T14:36:33.136Z,29.40
2018-05-31T14:39:00.724Z,29.50
2018-05-31T14:41:28.328Z,29.50
2018-05-31T14:43:56.621Z,29.70
2018-05-31T14:46:24.881Z,29.60
2018-05-31T14:48:52.446Z,29.60
2018-05-31T14:51:19.937Z,29.50
2018-05-31T14:53:47.592Z,29.40
2018-05-31T14:56:15.257Z,29.30
2018-05-31T14:58:42.880Z,29.30
2018-05-31T15:01:11.111Z,29.30
2018-05-31T15:03:38.745Z,29.30
2018-05-31T15:06:06.232Z,29.30
2018-05-31T15:08:33.879Z,29.30
2018-05-31T15:11:02.915Z,29.30
2018-05-31T15:13:37.856Z,29.30
2018-05-31T15:16:06.490Z,29.20
2018-05-31T15:18:38.841Z,29.20
2018-05-31T15:21:10.449Z,29.20
2018-05-31T15:23:38.350Z,29.20
2018-05-31T15:26:05.964Z,29.20
2018-05-31T15:28:34.170Z,29.10
2018-05-31T15:31:02.763Z,29.10
2018-05-31T15:33:30.274Z,29.10
2018-05-31T15:35:57.942Z,29.10
2018-05-31T15:38:29.957Z,29.10
2018-05-31T15:40:57.729Z,29.20
2018-05-31T15:43:26.211Z,29.10
2018-05-31T15:45:54.630Z,29.20
2018-05-31T15:48:22.135Z,29.20
2018-05-31T15:50:49.639Z,29.10
2018-05-31T15:53:17.190Z,29.10
2018-05-31T15:55:44.706Z,29.10
2018-05-31T15:58:12.217Z,29.20
2018-05-31T16:00:39.703Z,29.30
2018-05-31T16:03:07.221Z,29.10
2018-05-31T16:05:34.747Z,29.10
2018-05-31T16:08:02.412Z,29.10
2018-05-31T16:10:30.080Z,29.10
2018-05-31T16:12:57.586Z,29.00
2018-05-31T16:15:25.093Z,28.90
2018-05-31T16:17:52.679Z,28.80
2018-05-31T16:20:20.236Z,28.80
2018-05-31T16:22:47.869Z,28.80
2018-05-31T16:25:18.472Z,28.70
2018-05-31T16:27:47.174Z,28.70
2018-05-31T16:30:16.074Z,28.60
2018-05-31T16:32:43.937Z,28.50
2018-05-31T16:35:16.188Z,28.30
2018-05-31T16:37:48.669Z,28.30
2018-05-31T16:40:17.024Z,28.10
2018-05-31T16:42:45.444Z,28.10
2018-05-31T16:45:13.088Z,28.00
2018-05-31T16:47:40.624Z,28.00
2018-05-31T16:50:08.123Z,27.90
2018-05-31T16:52:35.681Z,28.00
2018-05-31T16:55:03.236Z,28.00
2018-05-31T16:57:30.758Z,28.00
2018-05-31T16:59:58.327Z,28.00
2018-05-31T17:02:25.804Z,28.00
2018-05-31T17:04:53.467Z,28.10
2018-05-31T17:07:21.201Z,28.10
2018-05-31T17:09:48.756Z,28.10
2018-05-31T17:12:16.222Z,28.00
2018-05-31T17:14:43.789Z,27.90
2018-05-31T17:17:11.488Z,27.80
2018-05-31T17:19:39.076Z,27.80
2018-05-31T17:22:06.765Z,27.80
2018-05-31T17:24:34.500Z,27.70
2018-05-31T17:27:05.532Z,27.60
2018-05-31T17:29:33.222Z,27.50
2018-05-31T17:32:01.810Z,27.40
2018-05-31T17:34:29.321Z,27.40
2018-05-31T17:36:57.704Z,27.20
2018-05-31T17:39:25.272Z,27.10
2018-05-31T17:41:52.821Z,27.10
2018-05-31T17:44:21.242Z,26.90
2018-05-31T17:46:48.910Z,26.80
2018-05-31T17:49:16.596Z,26.80
2018-05-31T17:51:44.149Z,26.60
2018-05-31T17:54:11.981Z,26.60
2018-05-31T17:56:39.519Z,26.50
2018-05-31T17:59:07.143Z,26.30
2018-05-31T18:14:23.178Z,25.70
2018-05-31T18:16:52.425Z,25.50
2018-05-31T18:19:20.117Z,25.50
2018-05-31T18:21:47.652Z,25.40
2018-05-31T18:24:15.252Z,25.40
2018-05-31T18:26:42.975Z,25.30
2018-05-31T18:29:10.664Z,25.20
2018-05-31T18:31:38.255Z,25.10
2018-05-31T18:34:05.790Z,25.00
2018-05-31T18:36:33.444Z,25.00
2018-05-31T18:39:01.001Z,24.80
2018-05-31T18:41:29.083Z,24.80
2018-05-31T18:43:56.630Z,24.70
2018-05-31T18:46:25.216Z,24.60
2018-05-31T18:48:52.921Z,24.50
2018-05-31T18:51:20.551Z,24.40
2018-05-31T18:53:48.186Z,24.40
2018-05-31T18:56:16.032Z,24.30
2018-05-31T18:58:43.800Z,24.30
2018-05-31T19:01:12.385Z,24.20
2018-05-31T19:03:40.876Z,24.10
2018-05-31T19:06:08.504Z,24.00
2018-05-31T19:08:36.009Z,24.00
2018-05-31T19:11:04.876Z,23.90
2018-05-31T19:13:39.369Z,23.90
2018-05-31T19:16:06.938Z,23.80
2018-05-31T19:18:40.929Z,23.70
2018-05-31T19:21:12.903Z,23.60
2018-05-31T19:23:40.753Z,23.70
2018-05-31T19:26:08.384Z,23.50
2018-05-31T19:28:36.849Z,23.50
2018-05-31T19:31:10.988Z,23.50
2018-05-31T19:33:38.643Z,23.40
2018-05-31T19:36:12.022Z,23.20
2018-05-31T19:38:40.517Z,23.10
2018-05-31T19:41:08.187Z,23.00
2018-05-31T19:43:41.482Z,23.00
2018-05-31T19:46:09.141Z,23.00
2018-05-31T19:48:38.081Z,22.90
2018-05-31T19:51:05.905Z,22.80
2018-05-31T19:53:39.394Z,22.70
2018-05-31T19:56:07.021Z,22.60
2018-05-31T19:58:40.138Z,22.50
2018-05-31T20:01:13.478Z,22.50
2018-05-31T20:03:41.151Z,22.40
2018-05-31T20:06:08.765Z,22.30
2018-05-31T20:08:37.484Z,22.20
2018-05-31T20:11:05.137Z,22.20
2018-05-31T20:13:32.834Z,22.10
2018-05-31T20:16:00.394Z,22.10
2018-05-31T20:18:28.098Z,22.10
2018-05-31T20:20:55.822Z,22.00
2018-05-31T20:23:23.538Z,22.00
2018-05-31T20:25:51.167Z,21.90
2018-05-31T20:28:19.629Z,21.80
2018-05-31T20:30:47.788Z,21.80
2018-05-31T20:33:15.991Z,21.70
2018-05-31T20:35:44.402Z,21.60
2018-05-31T20:38:12.272Z,21.60
2018-05-31T20:40:39.946Z,21.50
2018-05-31T20:43:08.522Z,21.50
2018-05-31T20:45:36.493Z,21.50
2018-05-31T20:48:04.938Z,21.30
2018-05-31T20:50:32.538Z,21.30
2018-05-31T20:53:00.053Z,21.30
2018-05-31T20:55:30.978Z,21.30
2018-05-31T20:57:58.740Z,21.20
2018-05-31T21:00:27.010Z,21.10
2018-05-31T21:02:54.714Z,21.10
2018-05-31T21:05:22.505Z,21.10
2018-05-31T21:07:50.116Z,21.00
2018-05-31T21:10:17.699Z,21.00
2018-05-31T21:12:45.249Z,21.00
2018-05-31T21:15:12.903Z,20.90
2018-05-31T21:17:40.679Z,20.90
2018-05-31T21:20:08.260Z,20.90
2018-05-31T21:22:36.806Z,20.90
2018-05-31T21:25:05.573Z,20.90
2018-05-31T21:27:33.227Z,20.80
2018-05-31T21:30:04.376Z,20.90
2018-05-31T21:32:31.999Z,20.90
2018-05-31T21:34:59.506Z,20.80
2018-05-31T21:37:27.012Z,20.80
2018-05-31T21:39:55.301Z,20.80
2018-05-31T21:42:22.814Z,20.80
2018-05-31T21:44:51.445Z,20.70
2018-05-31T21:47:18.987Z,20.70
2018-05-31T21:49:47.201Z,20.70
2018-05-31T21:52:15.564Z,20.70
2018-05-31T21:54:43.074Z,20.70
2018-05-31T21:57:10.581Z,20.60
2018-05-31T21:59:39.820Z,20.60
2018-05-31T22:02:07.367Z,20.60
2018-05-31T22:04:35.605Z,20.50
2018-05-31T22:07:03.069Z,20.50
2018-05-31T22:09:30.669Z,20.50
2018-05-31T22:11:58.149Z,20.50
2018-05-31T22:14:25.666Z,20.50
2018-05-31T22:16:53.196Z,20.50
2018-05-31T22:19:21.041Z,20.40
2018-05-31T22:21:48.555Z,20.40
2018-05-31T22:24:16.038Z,20.40
2018-05-31T22:26:43.492Z,20.40
2018-05-31T22:29:11.008Z,20.40
2018-05-31T22:31:39.378Z,20.40
2018-05-31T22:34:06.873Z,20.40
2018-05-31T22:36:34.450Z,20.40
2018-05-31T22:39:01.881Z,20.40
2018-05-31T22:41:29.360Z,20.30
2018-05-31T22:43:56.854Z,20.30
2018-05-31T22:46:24.343Z,20.30
2018-05-31T22:48:51.858Z,20.20
2018-05-31T22:51:20.141Z,20.20
2018-05-31T22:53:49.147Z,20.20
2018-05-31T22:56:16.653Z,20.20
2018-05-31T22:58:44.150Z,20.20
2018-05-31T23:01:11.698Z,20.10
2018-05-31T23:03:39.185Z,20.10
2018-05-31T23:06:06.771Z,20.10
2018-05-31T23:08:40.118Z,20.00
2018-05-31T23:11:07.633Z,20.00
2018-05-31T23:13:35.304Z,20.00
2018-05-31T23:16:02.844Z,20.00
2018-05-31T23:18:31.094Z,19.90
2018-05-31T23:20:59.573Z,19.90
2018-05-31T23:23:27.120Z,19.90
2018-05-31T23:25:54.605Z,19.90
2018-05-31T23:28:22.076Z,19.90
2018-05-31T23:30:49.580Z,19.80
2018-05-31T23:33:17.171Z,19.80
2018-05-31T23:35:44.735Z,19.80
2018-05-31T23:38:12.263Z,19.80
2018-05-31T23:40:39.737Z,19.80
2018-05-31T23:43:07.242Z,19.70
2018-05-31T23:45:34.808Z,19.70
2018-05-31T23:48:02.330Z,19.70
2018-05-31T23:50:29.845Z,19.60
2018-05-31T23:52:57.316Z,19.60
2018-05-31T23:55:24.813Z,19.60
2018-05-31T23:57:52.328Z,19.60
